Time;durP1;ratioP1;P1;durP2;ratioP2;P2;SDS_P1;SDS_P2;PMS_P1;PMS_P2;Temp;Humidity;BMP_temperature;BMP_pressure;BME280_temperature;BME280_humidity;BME280_pressure;Samples;Min_cycle;Max_cycle;Signal;HPM_P1;HPM_P2
2023/07/09 00:01:49;;;;;;;;;;;25.90;49.00;;;;;;5095982;28;19986;-58
2023/07/09 00:04:17;;;;;;;;;;;25.90;49.00;;;;;;5096537;28;20292;-59
2023/07/09 00:06:44;;;;;;;;;;;25.90;49.00;;;;;;5097130;28;19975;-58
2023/07/09 00:09:13;;;;;;;;;;;25.90;49.00;;;;;;5097110;28;19969;-57
2023/07/09 00:11:40;;;;;;;;;;;25.90;49.10;;;;;;5097152;28;19978;-58
2023/07/09 00:14:08;;;;;;;;;;;25.90;49.10;;;;;;5097213;28;19971;-58
2023/07/09 00:16:36;;;;;;;;;;;25.90;49.10;;;;;;5097326;28;19924;-58
2023/07/09 00:19:04;;;;;;;;;;;25.90;49.10;;;;;;5096870;28;20372;-58
2023/07/09 00:21:33;;;;;;;;;;;25.90;49.10;;;;;;5097149;28;19924;-57
2023/07/09 00:24:04;;;;;;;;;;;25.90;49.10;;;;;;5096424;28;19978;-58
2023/07/09 00:26:32;;;;;;;;;;;25.90;49.10;;;;;;5096614;28;19928;-58
2023/07/09 00:28:59;;;;;;;;;;;25.90;49.10;;;;;;5095807;28;19928;-58
2023/07/09 00:31:26;;;;;;;;;;;25.90;49.10;;;;;;5096497;28;19967;-58
2023/07/09 00:33:55;;;;;;;;;;;25.90;49.10;;;;;;5096699;28;19931;-58
2023/07/09 00:36:28;;;;;;;;;;;25.90;49.10;;;;;;5095502;28;19928;-58
2023/07/09 00:38:59;;;;;;;;;;;25.90;49.10;;;;;;5096451;28;20312;-58
2023/07/09 00:41:28;;;;;;;;;;;25.90;49.10;;;;;;5095919;28;19931;-58
2023/07/09 00:43:55;;;;;;;;;;;25.80;49.00;;;;;;5096609;28;19970;-58
2023/07/09 00:46:42;;;;;;;;;;;25.80;49.00;;;;;;5096142;28;19935;-58
2023/07/09 00:49:10;;;;;;;;;;;25.80;49.10;;;;;;5095246;28;19927;-58
2023/07/09 00:51:41;;;;;;;;;;;25.80;49.10;;;;;;5096810;28;20330;-58
2023/07/09 00:54:18;;;;;;;;;;;25.80;49.10;;;;;;5095742;28;20035;-58
2023/07/09 00:56:46;;;;;;;;;;;25.80;49.20;;;;;;5096324;28;19977;-58
2023/07/09 00:59:15;;;;;;;;;;;25.80;49.20;;;;;;5095914;28;19928;-58
2023/07/09 01:01:42;;;;;;;;;;;25.70;49.10;;;;;;5095763;28;19931;-58
2023/07/09 01:04:10;;;;;;;;;;;25.80;49.20;;;;;;5096299;28;19931;-58
2023/07/09 01:06:43;;;;;;;;;;;25.80;49.20;;;;;;5096003;28;19965;-58
2023/07/09 01:09:10;;;;;;;;;;;25.80;49.30;;;;;;5096113;28;19975;-58
2023/07/09 01:11:38;;;;;;;;;;;25.80;49.20;;;;;;5096254;28;19931;-58
2023/07/09 01:14:07;;;;;;;;;;;25.70;49.20;;;;;;5095344;28;19924;-58
2023/07/09 01:16:35;;;;;;;;;;;25.70;49.20;;;;;;5094768;28;20038;-58
2023/07/09 01:19:04;;;;;;;;;;;25.70;49.20;;;;;;5095608;28;19970;-58
2023/07/09 01:21:32;;;;;;;;;;;25.70;49.30;;;;;;5094833;28;19950;-58
2023/07/09 01:24:14;;;;;;;;;;;25.70;49.30;;;;;;5096313;28;20285;-58
2023/07/09 01:26:41;;;;;;;;;;;25.70;49.30;;;;;;5095370;28;19924;-58
2023/07/09 01:29:08;;;;;;;;;;;25.70;49.30;;;;;;5094664;28;20283;-58
2023/07/09 01:31:35;;;;;;;;;;;25.70;49.30;;;;;;5094938;28;20019;-58
2023/07/09 01:34:02;;;;;;;;;;;25.70;49.30;;;;;;5092879;28;20026;-58
2023/07/09 01:36:31;;;;;;;;;;;25.70;49.30;;;;;;5094587;28;19928;-57
2023/07/09 01:38:58;;;;;;;;;;;25.70;49.30;;;;;;5095218;28;19927;-58
2023/07/09 01:41:25;;;;;;;;;;;25.70;49.40;;;;;;5095018;28;19971;-58
2023/07/09 01:43:52;;;;;;;;;;;25.70;49.40;;;;;;5095496;28;19924;-58
2023/07/09 01:46:20;;;;;;;;;;;25.70;49.40;;;;;;5095295;28;19931;-58
2023/07/09 01:48:49;;;;;;;;;;;25.70;49.40;;;;;;5095114;28;20314;-58
2023/07/09 01:51:17;;;;;;;;;;;25.70;49.40;;;;;;5095001;28;19931;-58
2023/07/09 01:53:44;;;;;;;;;;;25.70;49.50;;;;;;5095724;28;19924;-58
2023/07/09 01:56:11;;;;;;;;;;;25.70;49.40;;;;;;5077029;28;20382;-58
2023/07/09 01:58:41;;;;;;;;;;;25.70;49.40;;;;;;5094960;28;19928;-59
2023/07/09 02:01:09;;;;;;;;;;;25.70;49.50;;;;;;5095080;28;19935;-58
2023/07/09 02:03:36;;;;;;;;;;;25.70;49.40;;;;;;5094454;28;19974;-58
2023/07/09 02:06:09;;;;;;;;;;;25.70;49.40;;;;;;5094208;28;20319;-58
2023/07/09 02:08:37;;;;;;;;;;;25.70;49.50;;;;;;5095169;28;20380;-58
2023/07/09 02:11:04;;;;;;;;;;;25.70;49.40;;;;;;5092728;28;19978;-58
2023/07/09 02:13:31;;;;;;;;;;;25.70;49.40;;;;;;5095115;28;19947;-58
2023/07/09 02:15:58;;;;;;;;;;;25.70;49.40;;;;;;5094338;28;19932;-57
2023/07/09 02:18:26;;;;;;;;;;;25.70;49.50;;;;;;5093565;28;19971;-58
2023/07/09 02:20:52;;;;;;;;;;;25.70;49.40;;;;;;5094538;28;19977;-58
2023/07/09 02:23:19;;;;;;;;;;;25.70;49.40;;;;;;5093938;28;20011;-58
2023/07/09 02:25:47;;;;;;;;;;;25.70;49.50;;;;;;5094005;28;20406;-58
2023/07/09 02:28:14;;;;;;;;;;;25.70;49.40;;;;;;5094515;28;19928;-58
2023/07/09 02:30:41;;;;;;;;;;;25.70;49.40;;;;;;5094810;28;20053;-58
2023/07/09 02:33:08;;;;;;;;;;;25.70;50.00;;;;;;5094121;28;19925;-58
2023/07/09 02:35:35;;;;;;;;;;;25.70;49.40;;;;;;5094377;28;19931;-58
2023/07/09 02:38:02;;;;;;;;;;;25.70;49.40;;;;;;5093456;28;19931;-58
2023/07/09 02:40:29;;;;;;;;;;;25.70;49.40;;;;;;5093948;28;19924;-58
2023/07/09 02:42:56;;;;;;;;;;;25.70;49.50;;;;;;5094825;28;19931;-58
2023/07/09 02:45:23;;;;;;;;;;;25.70;49.50;;;;;;5094307;28;19978;-58
2023/07/09 02:47:50;;;;;;;;;;;25.70;49.50;;;;;;5094461;28;20328;-58
2023/07/09 02:50:17;;;;;;;;;;;25.70;49.50;;;;;;5093197;28;19968;-58
2023/07/09 02:52:44;;;;;;;;;;;25.60;49.50;;;;;;5093726;28;19977;-58
2023/07/09 02:55:11;;;;;;;;;;;25.60;49.50;;;;;;5094012;28;19924;-58
2023/07/09 02:57:38;;;;;;;;;;;25.60;49.50;;;;;;5093909;28;19967;-58
2023/07/09 03:00:06;;;;;;;;;;;25.60;49.50;;;;;;5092903;28;19969;-58
2023/07/09 03:02:34;;;;;;;;;;;25.60;49.50;;;;;;5093990;28;19924;-58
2023/07/09 03:05:01;;;;;;;;;;;25.60;49.60;;;;;;5093695;28;19924;-58
2023/07/09 03:07:27;;;;;;;;;;;25.60;49.60;;;;;;5093737;28;19982;-58
2023/07/09 03:09:54;;;;;;;;;;;25.60;49.50;;;;;;5093586;28;20334;-58
2023/07/09 03:12:21;;;;;;;;;;;25.60;49.50;;;;;;5093700;28;19924;-58
2023/07/09 03:14:49;;;;;;;;;;;25.60;49.60;;;;;;5092902;28;20010;-58
2023/07/09 03:17:16;;;;;;;;;;;25.60;49.60;;;;;;5092676;28;20376;-58
2023/07/09 03:19:43;;;;;;;;;;;25.60;49.60;;;;;;5093526;28;19932;-58
2023/07/09 03:22:10;;;;;;;;;;;25.60;49.60;;;;;;5092467;28;19928;-58
2023/07/09 03:24:37;;;;;;;;;;;25.60;49.60;;;;;;5092860;28;19970;-58
2023/07/09 03:27:04;;;;;;;;;;;25.60;49.60;;;;;;5093507;28;19924;-58
2023/07/09 03:29:31;;;;;;;;;;;25.60;49.60;;;;;;5092923;28;19934;-58
2023/07/09 03:31:58;;;;;;;;;;;25.60;49.60;;;;;;5093137;28;20006;-58
2023/07/09 03:34:25;;;;;;;;;;;25.60;49.50;;;;;;5093721;28;19924;-58
2023/07/09 03:36:52;;;;;;;;;;;25.60;49.50;;;;;;5093435;28;20447;-58
2023/07/09 03:39:18;;;;;;;;;;;25.60;49.50;;;;;;5093265;28;19950;-58
2023/07/09 03:41:45;;;;;;;;;;;25.70;49.50;;;;;;5093424;28;19969;-58
2023/07/09 03:44:12;;;;;;;;;;;25.70;49.50;;;;;;5093180;28;19969;-58
2023/07/09 03:46:39;;;;;;;;;;;25.60;49.40;;;;;;5092980;28;19974;-58
2023/07/09 03:49:06;;;;;;;;;;;25.70;49.50;;;;;;5092632;28;19924;-58
2023/07/09 03:51:33;;;;;;;;;;;25.70;49.50;;;;;;5093002;28;20384;-58
2023/07/09 03:54:00;;;;;;;;;;;25.70;49.40;;;;;;5093395;28;20411;-58
2023/07/09 03:56:27;;;;;;;;;;;25.70;49.40;;;;;;5092999;28;19993;-58
2023/07/09 03:58:54;;;;;;;;;;;25.70;49.40;;;;;;5093376;28;19971;-59
2023/07/09 04:01:21;;;;;;;;;;;25.70;49.30;;;;;;5091433;28;20016;-58
2023/07/09 04:03:48;;;;;;;;;;;25.80;49.30;;;;;;5093652;28;19924;-58
2023/07/09 04:06:15;;;;;;;;;;;25.80;49.20;;;;;;5092244;28;19978;-58
2023/07/09 04:08:42;;;;;;;;;;;25.80;49.20;;;;;;5093497;28;19977;-58
2023/07/09 04:11:10;;;;;;;;;;;25.80;49.20;;;;;;5092209;28;19928;-58
2023/07/09 04:13:37;;;;;;;;;;;25.80;49.10;;;;;;5092624;28;19959;-58
2023/07/09 04:16:04;;;;;;;;;;;25.90;49.10;;;;;;5090393;28;19982;-58
2023/07/09 04:18:31;;;;;;;;;;;25.90;49.10;;;;;;5092576;28;19924;-58
2023/07/09 04:20:58;;;;;;;;;;;25.90;49.10;;;;;;5092515;28;20269;-58
2023/07/09 04:23:25;;;;;;;;;;;25.90;49.00;;;;;;5092516;28;20443;-58
2023/07/09 04:25:52;;;;;;;;;;;25.90;48.90;;;;;;5092524;28;20018;-58
2023/07/09 04:28:19;;;;;;;;;;;26.00;49.00;;;;;;5092605;28;20288;-58
2023/07/09 04:30:47;;;;;;;;;;;25.90;48.90;;;;;;5091624;28;19924;-58
2023/07/09 04:33:17;;;;;;;;;;;26.00;48.90;;;;;;5091968;28;19931;-58
2023/07/09 04:35:45;;;;;;;;;;;26.00;48.80;;;;;;5095089;28;20027;-58
2023/07/09 04:38:13;;;;;;;;;;;26.00;48.90;;;;;;5096152;28;19950;-58
2023/07/09 04:40:40;;;;;;;;;;;25.90;48.90;;;;;;5095488;28;19932;-59
2023/07/09 04:43:07;;;;;;;;;;;25.80;49.00;;;;;;5096499;28;20334;-59
2023/07/09 04:45:34;;;;;;;;;;;25.70;49.20;;;;;;5096034;28;19963;-59
2023/07/09 04:48:01;;;;;;;;;;;25.50;49.50;;;;;;5094732;28;19924;-61
2023/07/09 04:50:28;;;;;;;;;;;25.20;49.90;;;;;;5095196;28;19978;-58
2023/07/09 04:52:55;;;;;;;;;;;24.90;50.60;;;;;;5095113;28;19967;-58
2023/07/09 04:55:22;;;;;;;;;;;24.70;49.80;;;;;;5095350;28;19924;-58
2023/07/09 04:57:50;;;;;;;;;;;24.30;49.50;;;;;;5096158;28;19924;-58
2023/07/09 05:00:17;;;;;;;;;;;24.00;49.10;;;;;;5094244;28;20433;-58
2023/07/09 05:02:44;;;;;;;;;;;23.60;49.50;;;;;;5096435;28;20380;-58
2023/07/09 05:05:11;;;;;;;;;;;23.20;49.50;;;;;;5094611;28;19931;-59
2023/07/09 05:07:39;;;;;;;;;;;22.90;49.70;;;;;;5096429;28;19928;-59
2023/07/09 05:10:06;;;;;;;;;;;22.50;49.90;;;;;;5094748;28;19969;-58
2023/07/09 05:12:33;;;;;;;;;;;22.20;49.70;;;;;;5095919;28;20292;-58
2023/07/09 05:15:00;;;;;;;;;;;21.90;50.20;;;;;;5095501;28;19928;-58
2023/07/09 05:17:27;;;;;;;;;;;21.60;50.90;;;;;;5095455;28;19928;-58
2023/07/09 05:19:54;;;;;;;;;;;21.40;51.00;;;;;;5094803;28;19930;-58
2023/07/09 05:22:21;;;;;;;;;;;21.10;51.70;;;;;;5096430;28;19924;-58
2023/07/09 05:24:48;;;;;;;;;;;21.00;52.40;;;;;;5095491;28;19959;-58
2023/07/09 05:27:15;;;;;;;;;;;20.80;52.50;;;;;;5095196;28;19955;-58
2023/07/09 05:29:42;;;;;;;;;;;20.70;53.10;;;;;;5095035;28;20319;-58
2023/07/09 05:32:09;;;;;;;;;;;20.70;53.90;;;;;;5095107;28;19971;-59
2023/07/09 05:34:36;;;;;;;;;;;20.60;53.90;;;;;;5095383;28;20250;-58
2023/07/09 05:37:03;;;;;;;;;;;20.50;54.70;;;;;;5095434;28;19924;-58
2023/07/09 05:39:30;;;;;;;;;;;20.50;55.10;;;;;;5095262;28;19924;-58
2023/07/09 05:41:57;;;;;;;;;;;20.40;55.40;;;;;;5094218;28;20329;-58
2023/07/09 05:44:24;;;;;;;;;;;20.40;55.40;;;;;;5094796;28;19932;-58
2023/07/09 05:46:51;;;;;;;;;;;20.40;55.50;;;;;;5093831;28;19975;-58
2023/07/09 05:49:18;;;;;;;;;;;20.40;55.50;;;;;;5074799;28;19924;-57
2023/07/09 05:51:45;;;;;;;;;;;20.40;55.20;;;;;;5074098;28;20438;-58
2023/07/09 05:54:12;;;;;;;;;;;20.40;55.10;;;;;;5074508;28;19928;-59
2023/07/09 05:56:39;;;;;;;;;;;20.40;55.10;;;;;;5074435;28;19928;-57
2023/07/09 05:59:06;;;;;;;;;;;20.30;55.00;;;;;;5073962;28;19929;-57
2023/07/09 06:01:33;;;;;;;;;;;20.30;55.30;;;;;;5074351;28;19924;-57
2023/07/09 06:04:00;;;;;;;;;;;20.30;55.30;;;;;;5075284;28;19947;-58
2023/07/09 06:06:27;;;;;;;;;;;20.30;55.50;;;;;;5073180;28;19925;-57
2023/07/09 06:08:54;;;;;;;;;;;20.30;55.40;;;;;;5074132;28;19924;-58
2023/07/09 06:11:21;;;;;;;;;;;20.30;55.20;;;;;;5074152;28;19928;-58
2023/07/09 06:13:48;;;;;;;;;;;20.30;55.40;;;;;;5073529;28;19924;-57
2023/07/09 06:16:16;;;;;;;;;;;20.30;55.50;;;;;;5073796;28;20393;-57
2023/07/09 06:18:43;;;;;;;;;;;20.30;55.60;;;;;;5073481;28;19924;-58
2023/07/09 06:21:11;;;;;;;;;;;20.30;56.10;;;;;;5074178;28;19967;-57
2023/07/09 06:23:38;;;;;;;;;;;20.30;56.10;;;;;;5074239;28;19960;-57
2023/07/09 06:26:05;;;;;;;;;;;20.30;56.00;;;;;;5073821;28;19929;-57
2023/07/09 06:28:32;;;;;;;;;;;20.30;55.80;;;;;;5073320;28;19924;-57
2023/07/09 06:31:00;;;;;;;;;;;20.40;56.00;;;;;;5073552;28;19925;-57
2023/07/09 06:33:28;;;;;;;;;;;20.40;55.70;;;;;;5073273;28;19978;-57
2023/07/09 06:35:57;;;;;;;;;;;20.30;55.90;;;;;;5073030;28;20343;-57
2023/07/09 06:38:24;;;;;;;;;;;20.40;55.90;;;;;;5073219;28;20403;-57
2023/07/09 06:40:51;;;;;;;;;;;20.40;55.70;;;;;;5072911;28;19955;-59
2023/07/09 06:43:23;;;;;;;;;;;20.40;56.00;;;;;;5073700;28;19994;-58
2023/07/09 06:45:55;;;;;;;;;;;20.40;56.10;;;;;;5073904;28;19974;-57
2023/07/09 06:48:23;;;;;;;;;;;20.40;56.80;;;;;;5072058;28;19925;-57
2023/07/09 06:50:51;;;;;;;;;;;20.40;56.30;;;;;;5073945;28;20385;-57
2023/07/09 06:53:20;;;;;;;;;;;20.40;56.50;;;;;;5073782;28;19964;-57
2023/07/09 06:55:48;;;;;;;;;;;20.40;56.50;;;;;;5073697;28;19948;-57
2023/07/09 06:58:16;;;;;;;;;;;20.40;56.70;;;;;;5073467;28;19950;-58
2023/07/09 07:00:43;;;;;;;;;;;20.50;57.00;;;;;;5073985;28;19929;-57
2023/07/09 07:03:10;;;;;;;;;;;20.50;56.90;;;;;;5073688;28;20399;-57
2023/07/09 07:05:42;;;;;;;;;;;20.50;57.00;;;;;;5075593;28;19974;-57
2023/07/09 07:08:09;;;;;;;;;;;20.50;57.20;;;;;;5093651;28;20023;-57
2023/07/09 07:10:36;;;;;;;;;;;20.60;57.10;;;;;;5093284;28;19977;-57
2023/07/09 07:13:03;;;;;;;;;;;20.60;57.40;;;;;;5093981;28;19975;-57
2023/07/09 07:15:30;;;;;;;;;;;20.60;57.30;;;;;;5093439;28;19931;-57
2023/07/09 07:17:57;;;;;;;;;;;20.60;57.30;;;;;;5093716;28;19931;-57
2023/07/09 07:20:24;;;;;;;;;;;20.60;57.60;;;;;;5092174;28;19946;-57
2023/07/09 07:22:51;;;;;;;;;;;20.60;57.40;;;;;;5093745;28;19928;-57
2023/07/09 07:25:18;;;;;;;;;;;20.70;57.60;;;;;;5093142;28;19985;-57
2023/07/09 07:27:45;;;;;;;;;;;20.70;57.70;;;;;;5093024;28;19967;-57
2023/07/09 07:30:12;;;;;;;;;;;20.60;58.30;;;;;;5093726;28;20003;-57
2023/07/09 07:32:44;;;;;;;;;;;20.70;57.80;;;;;;5093395;28;20327;-57
2023/07/09 07:35:11;;;;;;;;;;;20.70;57.90;;;;;;5091771;28;19928;-57
2023/07/09 07:37:38;;;;;;;;;;;20.70;58.10;;;;;;5092606;28;19924;-57
2023/07/09 07:40:05;;;;;;;;;;;20.70;58.20;;;;;;5092683;28;20418;-57
2023/07/09 07:42:32;;;;;;;;;;;20.70;58.30;;;;;;5093027;28;19924;-58
2023/07/09 07:44:59;;;;;;;;;;;20.80;58.10;;;;;;5093523;28;19946;-57
2023/07/09 07:47:27;;;;;;;;;;;20.80;58.30;;;;;;5091523;28;20376;-58
2023/07/09 07:49:54;;;;;;;;;;;20.80;58.30;;;;;;5093252;28;19924;-58
2023/07/09 07:52:21;;;;;;;;;;;20.90;58.10;;;;;;5093743;28;19928;-57
2023/07/09 07:54:49;;;;;;;;;;;20.90;58.40;;;;;;5092507;28;19924;-57
2023/07/09 07:57:16;;;;;;;;;;;20.90;58.30;;;;;;5093554;28;19945;-57
2023/07/09 07:59:43;;;;;;;;;;;21.00;58.40;;;;;;5092988;28;20377;-57
2023/07/09 08:02:13;;;;;;;;;;;21.00;58.30;;;;;;5093102;28;19924;-58
2023/07/09 08:04:41;;;;;;;;;;;21.00;58.20;;;;;;5092649;28;19924;-58
2023/07/09 08:07:09;;;;;;;;;;;21.00;58.40;;;;;;5092738;28;19924;-57
2023/07/09 08:09:36;;;;;;;;;;;21.10;58.40;;;;;;5093919;28;19932;-58
2023/07/09 08:12:08;;;;;;;;;;;21.10;58.40;;;;;;5096375;28;19970;-57
2023/07/09 08:14:37;;;;;;;;;;;21.10;58.50;;;;;;5096625;28;20407;-58
2023/07/09 08:17:05;;;;;;;;;;;21.10;58.40;;;;;;5097123;28;19924;-58
2023/07/09 08:19:32;;;;;;;;;;;21.20;58.40;;;;;;5097096;28;19924;-57
2023/07/09 08:21:59;;;;;;;;;;;21.20;58.40;;;;;;5097354;28;19924;-57
2023/07/09 08:24:26;;;;;;;;;;;21.20;58.20;;;;;;5096623;28;19924;-57
2023/07/09 08:26:53;;;;;;;;;;;21.30;58.10;;;;;;5096835;28;19924;-58
2023/07/09 08:29:20;;;;;;;;;;;21.20;57.80;;;;;;5097610;28;19924;-57
2023/07/09 08:31:47;;;;;;;;;;;21.30;57.80;;;;;;5096458;28;20018;-58
2023/07/09 08:34:14;;;;;;;;;;;21.30;57.90;;;;;;5096704;28;19924;-57
2023/07/09 08:36:41;;;;;;;;;;;21.30;57.80;;;;;;5096293;28;20403;-58
2023/07/09 08:39:08;;;;;;;;;;;21.40;57.80;;;;;;5097117;28;19977;-57
2023/07/09 08:41:55;;;;;;;;;;;21.40;57.80;;;;;;5096151;28;19924;-58
2023/07/09 08:44:33;;;;;;;;;;;21.40;57.80;;;;;;5096466;28;20372;-57
2023/07/09 08:47:06;;;;;;;;;;;21.40;57.70;;;;;;5096804;28;19924;-57
2023/07/09 08:49:37;;;;;;;;;;;21.40;57.70;;;;;;5096749;28;20049;-57
2023/07/09 08:52:09;;;;;;;;;;;21.40;57.70;;;;;;5095523;28;20338;-57
2023/07/09 08:54:36;;;;;;;;;;;21.40;57.60;;;;;;5096789;28;20377;-57
2023/07/09 08:57:14;;;;;;;;;;;21.40;57.60;;;;;;5096310;28;20429;-57
2023/07/09 08:59:41;;;;;;;;;;;21.40;57.40;;;;;;5095873;28;20023;-57
2023/07/09 09:02:16;;;;;;;;;;;21.40;57.30;;;;;;5096344;28;19924;-58
2023/07/09 09:04:44;;;;;;;;;;;21.40;57.10;;;;;;5096114;28;19928;-58
2023/07/09 09:07:19;;;;;;;;;;;21.40;57.00;;;;;;5095707;28;19946;-58
2023/07/09 09:09:52;;;;;;;;;;;21.40;56.90;;;;;;5096165;28;20444;-57
2023/07/09 09:12:21;;;;;;;;;;;21.40;56.80;;;;;;5096156;28;19972;-57
2023/07/09 09:14:56;;;;;;;;;;;21.40;56.90;;;;;;5095026;28;19962;-58
2023/07/09 09:17:25;;;;;;;;;;;21.30;56.80;;;;;;5095105;28;19924;-57
2023/07/09 09:19:56;;;;;;;;;;;21.30;56.80;;;;;;5095746;28;19924;-57
2023/07/09 09:22:26;;;;;;;;;;;21.30;56.80;;;;;;5094899;28;19924;-58
2023/07/09 09:25:03;;;;;;;;;;;21.30;56.70;;;;;;5095996;28;19924;-57
2023/07/09 09:27:30;;;;;;;;;;;21.30;56.60;;;;;;5095338;28;19970;-57
2023/07/09 09:29:57;;;;;;;;;;;21.40;56.70;;;;;;5096114;28;19954;-58
2023/07/09 09:32:29;;;;;;;;;;;21.40;56.50;;;;;;5095453;28;19985;-58
2023/07/09 09:34:57;;;;;;;;;;;21.40;56.50;;;;;;5095713;28;19930;-58
2023/07/09 09:37:28;;;;;;;;;;;21.40;56.40;;;;;;5095507;28;19924;-58
2023/07/09 09:39:56;;;;;;;;;;;21.40;56.50;;;;;;5094375;28;19924;-58
2023/07/09 09:42:42;;;;;;;;;;;21.30;56.50;;;;;;5095894;28;19931;-58
2023/07/09 09:45:12;;;;;;;;;;;21.30;57.00;;;;;;5095563;28;19924;-58
2023/07/09 09:47:39;;;;;;;;;;;21.30;56.60;;;;;;5095200;28;19993;-58
2023/07/09 09:50:09;;;;;;;;;;;21.30;57.20;;;;;;5094727;28;20304;-58
2023/07/09 09:52:37;;;;;;;;;;;21.30;57.20;;;;;;5094796;28;20418;-58
2023/07/09 09:55:21;;;;;;;;;;;21.30;56.90;;;;;;5094817;28;20342;-58
2023/07/09 09:57:51;;;;;;;;;;;21.30;56.80;;;;;;5094962;28;19974;-58
2023/07/09 10:00:21;;;;;;;;;;;21.30;56.70;;;;;;5095454;28;19928;-57
2023/07/09 10:02:48;;;;;;;;;;;21.30;56.60;;;;;;5095226;28;19931;-58
2023/07/09 10:05:16;;;;;;;;;;;21.40;56.50;;;;;;5094409;28;19978;-57
2023/07/09 10:07:45;;;;;;;;;;;21.30;56.50;;;;;;5094792;28;20406;-58
2023/07/09 10:10:20;;;;;;;;;;;21.30;56.30;;;;;;5095384;28;19924;-58
2023/07/09 10:12:51;;;;;;;;;;;21.40;56.30;;;;;;5094854;28;19935;-57
2023/07/09 10:15:34;;;;;;;;;;;21.30;56.10;;;;;;5094878;28;20372;-57
2023/07/09 10:18:21;;;;;;;;;;;21.30;56.00;;;;;;5094441;28;19931;-58
2023/07/09 10:20:59;;;;;;;;;;;21.30;55.90;;;;;;5094759;28;19924;-58
2023/07/09 10:23:29;;;;;;;;;;;21.30;55.70;;;;;;5094864;28;19955;-58
2023/07/09 10:26:08;;;;;;;;;;;21.30;55.70;;;;;;5094233;28;20445;-59
2023/07/09 10:28:58;;;;;;;;;;;21.30;55.90;;;;;;5095180;28;20011;-58
2023/07/09 10:31:33;;;;;;;;;;;21.30;55.40;;;;;;5094351;28;20019;-58
2023/07/09 10:34:20;;;;;;;;;;;21.30;55.20;;;;;;5094684;28;19973;-58
2023/07/09 10:36:57;;;;;;;;;;;21.30;54.90;;;;;;5094325;28;19924;-58
2023/07/09 10:39:32;;;;;;;;;;;21.20;54.70;;;;;;5094202;28;19928;-59
2023/07/09 10:41:59;;;;;;;;;;;21.20;54.70;;;;;;5093583;28;19928;-59
2023/07/09 10:44:33;;;;;;;;;;;21.10;54.30;;;;;;5094801;28;19969;-58
2023/07/09 10:47:04;;;;;;;;;;;21.20;54.50;;;;;;5093906;28;20447;-59
2023/07/09 10:49:36;;;;;;;;;;;21.10;54.30;;;;;;5094041;28;20336;-58
2023/07/09 10:52:10;;;;;;;;;;;21.00;54.40;;;;;;5094169;28;19974;-59
2023/07/09 10:54:41;;;;;;;;;;;21.00;54.30;;;;;;5093812;28;19970;-58
2023/07/09 10:57:12;;;;;;;;;;;20.90;54.30;;;;;;5094220;28;19924;-59
2023/07/09 10:59:40;;;;;;;;;;;20.90;54.30;;;;;;5093305;28;19963;-58
2023/07/09 11:02:23;;;;;;;;;;;20.90;54.30;;;;;;5094101;28;19932;-59
2023/07/09 11:04:58;;;;;;;;;;;20.90;54.40;;;;;;5093634;28;19931;-58
2023/07/09 11:07:29;;;;;;;;;;;20.80;54.50;;;;;;5094421;28;20280;-58
2023/07/09 11:09:57;;;;;;;;;;;20.80;54.40;;;;;;5093692;28;19932;-58
2023/07/09 11:12:29;;;;;;;;;;;20.80;54.40;;;;;;5094040;28;20368;-58
2023/07/09 11:15:01;;;;;;;;;;;20.80;54.40;;;;;;5092337;28;20215;-58
2023/07/09 11:17:29;;;;;;;;;;;20.80;54.50;;;;;;5093293;28;20368;-58
2023/07/09 11:19:59;;;;;;;;;;;20.80;54.40;;;;;;5093409;28;19924;-58
2023/07/09 11:22:35;;;;;;;;;;;20.80;54.60;;;;;;5092153;28;19959;-58
2023/07/09 11:25:13;;;;;;;;;;;20.80;54.60;;;;;;5093202;28;19977;-58
2023/07/09 11:27:49;;;;;;;;;;;20.80;54.50;;;;;;5093079;28;20363;-58
2023/07/09 11:30:20;;;;;;;;;;;20.70;54.50;;;;;;5093315;28;19977;-58
2023/07/09 11:32:48;;;;;;;;;;;20.70;54.60;;;;;;5093205;28;20392;-58
2023/07/09 11:35:22;;;;;;;;;;;20.70;55.00;;;;;;5092348;28;19931;-58
2023/07/09 11:37:50;;;;;;;;;;;20.70;54.80;;;;;;5093272;28;19923;-58
2023/07/09 11:40:19;;;;;;;;;;;20.60;55.00;;;;;;5093385;28;19971;-58
2023/07/09 11:42:48;;;;;;;;;;;20.60;55.30;;;;;;5092281;28;20023;-58
2023/07/09 11:45:17;;;;;;;;;;;20.60;55.30;;;;;;5092577;28;19978;-59
2023/07/09 11:47:45;;;;;;;;;;;20.60;55.30;;;;;;5092611;28;19985;-58
2023/07/09 11:50:21;;;;;;;;;;;20.70;55.40;;;;;;5093189;28;19924;-58
2023/07/09 11:52:57;;;;;;;;;;;20.70;55.20;;;;;;5092768;28;19924;-58
2023/07/09 11:55:29;;;;;;;;;;;20.70;55.10;;;;;;5093074;28;19970;-58
2023/07/09 11:57:57;;;;;;;;;;;20.70;55.40;;;;;;5093644;28;19971;-58
2023/07/09 12:00:25;;;;;;;;;;;20.70;55.10;;;;;;5091661;28;19945;-58
2023/07/09 12:02:52;;;;;;;;;;;20.70;55.40;;;;;;5083667;28;19964;-58
2023/07/09 12:05:21;;;;;;;;;;;20.70;55.30;;;;;;5086845;28;19924;-58
2023/07/09 12:07:48;;;;;;;;;;;20.80;55.30;;;;;;5082640;28;19974;-58
2023/07/09 12:10:20;;;;;;;;;;;20.80;55.20;;;;;;5077450;28;19970;-58
2023/07/09 12:12:47;;;;;;;;;;;20.90;55.20;;;;;;5083898;28;20380;-58
2023/07/09 12:15:19;;;;;;;;;;;20.90;55.20;;;;;;5092642;28;19924;-58
2023/07/09 12:17:57;;;;;;;;;;;20.90;55.30;;;;;;5073978;28;19951;-58
2023/07/09 12:20:24;;;;;;;;;;;21.00;55.20;;;;;;5071542;28;20322;-58
2023/07/09 12:22:51;;;;;;;;;;;21.00;55.40;;;;;;5087284;28;19977;-58
2023/07/09 12:25:22;;;;;;;;;;;21.00;55.30;;;;;;5090193;28;20211;-58
2023/07/09 12:27:49;;;;;;;;;;;21.10;55.30;;;;;;5089394;28;19959;-58
2023/07/09 12:30:16;;;;;;;;;;;21.10;55.30;;;;;;5091635;28;20321;-60
2023/07/09 12:32:45;;;;;;;;;;;21.00;55.20;;;;;;5078752;28;19928;-58
2023/07/09 12:35:14;;;;;;;;;;;21.10;55.10;;;;;;5090785;28;19932;-58
2023/07/09 12:37:42;;;;;;;;;;;21.10;55.30;;;;;;5092176;28;20104;-58
2023/07/09 12:40:13;;;;;;;;;;;21.10;55.30;;;;;;5090834;28;19962;-58
2023/07/09 12:42:41;;;;;;;;;;;21.10;55.30;;;;;;5093292;28;19924;-59
2023/07/09 12:45:14;;;;;;;;;;;21.20;55.40;;;;;;5092831;28;20001;-59
2023/07/09 12:47:41;;;;;;;;;;;21.10;55.30;;;;;;5092861;28;19953;-59
2023/07/09 12:50:29;;;;;;;;;;;21.10;55.30;;;;;;5093057;28;19931;-59
2023/07/09 12:52:57;;;;;;;;;;;21.30;55.50;;;;;;5092610;28;19924;-59
2023/07/09 12:55:25;;;;;;;;;;;21.20;55.30;;;;;;5093630;28;19968;-59
2023/07/09 12:57:56;;;;;;;;;;;21.20;55.30;;;;;;5096282;28;19928;-59
2023/07/09 13:00:28;;;;;;;;;;;21.20;55.30;;;;;;5096270;28;20328;-59
2023/07/09 13:02:57;;;;;;;;;;;21.30;55.10;;;;;;5096477;28;20380;-59
2023/07/09 13:05:25;;;;;;;;;;;21.30;55.20;;;;;;5096208;28;20369;-59
2023/07/09 13:07:54;;;;;;;;;;;21.30;55.30;;;;;;5096269;28;20330;-59
2023/07/09 13:10:26;;;;;;;;;;;21.30;55.20;;;;;;5096154;28;19924;-59
2023/07/09 13:13:04;;;;;;;;;;;21.30;55.30;;;;;;5094901;28;19971;-59
2023/07/09 13:15:38;;;;;;;;;;;21.40;55.20;;;;;;5096370;28;19985;-59
2023/07/09 13:18:06;;;;;;;;;;;21.40;55.60;;;;;;5094344;28;19925;-59
2023/07/09 13:20:36;;;;;;;;;;;21.40;55.20;;;;;;5096100;28;20344;-59
2023/07/09 13:23:08;;;;;;;;;;;21.40;55.10;;;;;;5095695;28;19970;-59
2023/07/09 13:25:36;;;;;;;;;;;21.40;55.30;;;;;;5095468;28;19924;-59
2023/07/09 13:28:22;;;;;;;;;;;21.40;55.30;;;;;;5096277;28;20277;-59
2023/07/09 13:30:50;;;;;;;;;;;21.40;55.30;;;;;;5095686;28;19931;-59
2023/07/09 13:33:17;;;;;;;;;;;21.40;55.30;;;;;;5095870;28;20380;-59
2023/07/09 13:35:45;;;;;;;;;;;21.40;55.30;;;;;;5095207;28;19924;-59
2023/07/09 13:38:13;;;;;;;;;;;21.40;55.30;;;;;;5095127;28;20412;-59
2023/07/09 13:40:40;;;;;;;;;;;21.30;55.40;;;;;;5094842;28;19928;-59
2023/07/09 13:43:11;;;;;;;;;;;21.30;55.20;;;;;;5095334;28;20361;-59
2023/07/09 13:45:39;;;;;;;;;;;21.30;55.40;;;;;;5095688;28;19946;-59
2023/07/09 13:48:13;;;;;;;;;;;21.30;55.20;;;;;;5093727;28;20381;-58
2023/07/09 13:50:40;;;;;;;;;;;21.40;55.20;;;;;;5094198;28;19924;-59
2023/07/09 13:53:13;;;;;;;;;;;21.40;55.00;;;;;;5095309;28;19966;-59
2023/07/09 13:55:41;;;;;;;;;;;21.40;55.10;;;;;;5095429;28;19939;-58
2023/07/09 13:58:09;;;;;;;;;;;21.40;55.30;;;;;;5095003;28;19924;-59
2023/07/09 14:00:37;;;;;;;;;;;21.40;55.10;;;;;;5095124;28;19924;-59
2023/07/09 14:03:07;;;;;;;;;;;21.40;55.20;;;;;;5095066;28;19993;-58
2023/07/09 14:05:35;;;;;;;;;;;21.60;59.10;;;;;;5095258;28;20010;-59
2023/07/09 14:08:02;;;;;;;;;;;21.80;60.70;;;;;;5093762;28;20368;-59
2023/07/09 14:10:29;;;;;;;;;;;22.10;61.00;;;;;;5095347;28;21899;-59
2023/07/09 14:12:56;;;;;;;;;;;22.40;61.20;;;;;;5094539;28;19924;-59
2023/07/09 14:15:23;;;;;;;;;;;22.70;61.00;;;;;;5093993;28;20420;-59
2023/07/09 14:17:51;;;;;;;;;;;23.00;60.90;;;;;;5095068;28;19963;-58
2023/07/09 14:20:20;;;;;;;;;;;23.20;60.70;;;;;;5094441;28;19924;-59
2023/07/09 14:22:51;;;;;;;;;;;23.40;60.80;;;;;;5094960;28;19977;-59
2023/07/09 14:25:20;;;;;;;;;;;23.70;60.80;;;;;;5094937;28;19924;-59
2023/07/09 14:27:48;;;;;;;;;;;23.80;60.80;;;;;;5094870;28;19924;-59